Time;durP1;ratioP1;P1;durP2;ratioP2;P2;SDS_P1;SDS_P2;PMS_P1;PMS_P2;Temp;Humidity;BMP_temperature;BMP_pressure;BME280_temperature;BME280_humidity;BME280_pressure;Samples;Min_cycle;Max_cycle;Signal;HPM_P1;HPM_P2
2024/04/20 00:00:33;;;;;;;0.20;0.10;;;;;;;;;;5495854;26;20121;-80
2024/04/20 00:02:59;;;;;;;0.20;0.08;;;;;;;;;;5491664;26;19997;-80
2024/04/20 00:05:25;;;;;;;0.20;0.10;;;;;;;;;;5495095;26;20002;-80
2024/04/20 00:07:51;;;;;;;0.20;0.10;;;;;;;;;;5486118;26;19999;-80
2024/04/20 00:10:18;;;;;;;0.20;0.00;;;;;;;;;;5496917;26;19998;-81
2024/04/20 00:12:44;;;;;;;0.20;0.10;;;;;;;;;;5476314;26;20005;-81
2024/04/20 00:15:10;;;;;;;0.20;0.03;;;;;;;;;;5457457;26;20557;-81
2024/04/20 00:17:37;;;;;;;0.20;0.00;;;;;;;;;;5473113;26;20008;-81
2024/04/20 00:20:06;;;;;;;0.20;0.00;;;;;;;;;;5498707;26;19998;-80
2024/04/20 00:22:32;;;;;;;0.20;0.10;;;;;;;;;;5496810;26;20008;-80
2024/04/20 00:24:58;;;;;;;0.20;0.00;;;;;;;;;;5491529;26;20539;-80
2024/04/20 00:27:24;;;;;;;0.20;0.10;;;;;;;;;;5495617;26;20076;-81
2024/04/20 00:29:50;;;;;;;0.20;0.10;;;;;;;;;;5495497;26;20008;-80
2024/04/20 00:32:17;;;;;;;0.20;0.00;;;;;;;;;;5473890;26;20012;-80
2024/04/20 00:34:43;;;;;;;0.20;0.10;;;;;;;;;;5489505;26;20337;-81
2024/04/20 00:37:10;;;;;;;0.20;0.10;;;;;;;;;;5482483;26;20005;-81
2024/04/20 00:39:37;;;;;;;0.20;0.00;;;;;;;;;;5461090;26;20049;-80
2024/04/20 00:42:06;;;;;;;0.20;0.10;;;;;;;;;;5488715;26;20002;-80
2024/04/20 00:44:32;;;;;;;0.20;0.10;;;;;;;;;;5494419;26;20005;-80
2024/04/20 00:47:02;;;;;;;0.20;0.10;;;;;;;;;;5491208;26;19998;-81
2024/04/20 00:49:31;;;;;;;0.20;0.10;;;;;;;;;;5486521;26;20075;-80
2024/04/20 00:51:58;;;;;;;0.20;0.10;;;;;;;;;;5497264;26;20017;-80
2024/04/20 00:54:25;;;;;;;0.20;0.00;;;;;;;;;;5488551;26;20033;-79
2024/04/20 00:56:51;;;;;;;0.20;0.10;;;;;;;;;;5489877;26;20006;-81
2024/04/20 00:59:18;;;;;;;0.20;0.10;;;;;;;;;;5486040;26;20014;-81
2024/04/20 01:01:45;;;;;;;0.20;0.10;;;;;;;;;;5489263;26;20050;-80
2024/04/20 01:04:11;;;;;;;0.20;0.10;;;;;;;;;;5490023;26;19998;-80
2024/04/20 01:06:37;;;;;;;0.20;0.00;;;;;;;;;;5471456;26;20004;-80
2024/04/20 01:09:03;;;;;;;0.20;0.10;;;;;;;;;;5497538;26;19994;-80
2024/04/20 01:11:29;;;;;;;0.20;0.10;;;;;;;;;;5486782;26;20015;-79
2024/04/20 01:13:56;;;;;;;0.20;0.10;;;;;;;;;;5471218;26;20074;-80
2024/04/20 01:16:25;;;;;;;0.20;0.00;;;;;;;;;;5502036;26;20407;-80
2024/04/20 01:18:52;;;;;;;0.20;0.10;;;;;;;;;;5490336;26;20012;-80
2024/04/20 01:21:18;;;;;;;0.20;0.10;;;;;;;;;;5493944;26;20402;-81
2024/04/20 01:23:49;;;;;;;0.20;0.10;;;;;;;;;;5489880;26;20327;-81
2024/04/20 01:26:15;;;;;;;0.20;0.10;;;;;;;;;;5493210;26;20002;-81
2024/04/20 01:28:41;;;;;;;0.20;0.10;;;;;;;;;;5501628;26;19994;-80
2024/04/20 01:31:07;;;;;;;0.20;0.10;;;;;;;;;;5497390;26;20006;-80
2024/04/20 01:33:33;;;;;;;0.20;0.03;;;;;;;;;;5496371;26;19998;-81
2024/04/20 01:35:59;;;;;;;0.20;0.10;;;;;;;;;;5454107;26;20015;-80
2024/04/20 01:38:26;;;;;;;0.20;0.05;;;;;;;;;;5497607;26;20442;-81
2024/04/20 01:40:52;;;;;;;0.20;0.10;;;;;;;;;;5493312;26;20006;-80
2024/04/20 01:43:19;;;;;;;0.20;0.10;;;;;;;;;;5488448;26;19998;-80
2024/04/20 01:45:45;;;;;;;0.20;0.10;;;;;;;;;;5489178;26;19993;-80
2024/04/20 01:48:11;;;;;;;0.20;0.10;;;;;;;;;;5499761;26;20002;-80
2024/04/20 01:50:37;;;;;;;0.20;0.10;;;;;;;;;;5490172;26;20050;-80
2024/04/20 01:53:23;;;;;;;0.20;0.00;;;;;;;;;;5479231;26;20016;-79
2024/04/20 01:55:49;;;;;;;0.20;0.08;;;;;;;;;;5494384;26;20438;-80
2024/04/20 01:58:15;;;;;;;0.20;0.10;;;;;;;;;;5496233;26;20071;-80
2024/04/20 02:00:42;;;;;;;0.20;0.00;;;;;;;;;;5493830;26;20579;-79
2024/04/20 02:03:11;;;;;;;0.20;0.10;;;;;;;;;;5491526;26;20013;-80
2024/04/20 02:05:40;;;;;;;0.20;0.00;;;;;;;;;;5495115;26;20089;-80
2024/04/20 02:08:06;;;;;;;0.20;0.10;;;;;;;;;;5497470;26;20013;-80
2024/04/20 02:10:32;;;;;;;0.20;0.10;;;;;;;;;;5489680;26;20430;-80
2024/04/20 02:12:59;;;;;;;0.20;0.10;;;;;;;;;;5493159;26;20010;-80
2024/04/20 02:15:25;;;;;;;0.20;0.10;;;;;;;;;;5492522;26;19993;-80
2024/04/20 02:17:51;;;;;;;0.20;0.08;;;;;;;;;;5493843;26;20454;-82
2024/04/20 02:20:17;;;;;;;0.20;0.08;;;;;;;;;;5508107;26;20005;-81
2024/04/20 02:22:44;;;;;;;0.20;0.10;;;;;;;;;;5500772;26;20002;-81
2024/04/20 02:25:10;;;;;;;0.20;0.10;;;;;;;;;;5488392;26;19999;-81
2024/04/20 02:27:36;;;;;;;0.20;0.10;;;;;;;;;;5497653;26;20008;-79
2024/04/20 02:30:02;;;;;;;0.20;0.00;;;;;;;;;;5491934;26;20001;-81
2024/04/20 02:32:28;;;;;;;0.20;0.10;;;;;;;;;;5493296;26;20446;-81
2024/04/20 02:34:54;;;;;;;0.20;0.20;;;;;;;;;;5499142;26;20010;-80
2024/04/20 02:37:20;;;;;;;0.20;0.00;;;;;;;;;;5494620;26;20078;-80
2024/04/20 02:39:50;;;;;;;0.20;0.10;;;;;;;;;;5492182;26;19994;-80
2024/04/20 02:42:16;;;;;;;0.20;0.10;;;;;;;;;;5496008;26;19998;-81
2024/04/20 02:44:42;;;;;;;0.20;0.10;;;;;;;;;;5495128;26;20341;-80
2024/04/20 02:47:09;;;;;;;0.20;0.10;;;;;;;;;;5498057;26;20006;-81
2024/04/20 02:49:35;;;;;;;0.20;0.00;;;;;;;;;;5505360;26;20070;-81
2024/04/20 02:52:01;;;;;;;0.20;0.10;;;;;;;;;;5497300;26;20013;-81
2024/04/20 02:54:27;;;;;;;0.20;0.10;;;;;;;;;;5499225;26;20016;-80
2024/04/20 02:56:53;;;;;;;0.20;0.10;;;;;;;;;;5499968;26;20075;-80
2024/04/20 02:59:19;;;;;;;0.20;0.00;;;;;;;;;;5501762;26;20522;-81
2024/04/20 03:02:05;;;;;;;0.20;0.10;;;;;;;;;;5439904;26;20014;-79
2024/04/20 03:04:31;;;;;;;0.20;0.10;;;;;;;;;;5495827;26;20589;-82
2024/04/20 03:06:57;;;;;;;0.20;0.10;;;;;;;;;;5496540;26;20002;-80
2024/04/20 03:09:43;;;;;;;0.20;0.10;;;;;;;;;;5476651;26;20016;-79
2024/04/20 03:12:29;;;;;;;0.20;0.10;;;;;;;;;;5478694;26;20357;-80
2024/04/20 03:14:56;;;;;;;0.20;0.10;;;;;;;;;;5494657;26;20002;-80
2024/04/20 03:17:22;;;;;;;0.20;0.10;;;;;;;;;;5496329;26;20006;-80
2024/04/20 03:19:48;;;;;;;0.20;0.00;;;;;;;;;;5471756;26;20009;-79
2024/04/20 03:22:14;;;;;;;0.20;0.10;;;;;;;;;;5473703;26;20019;-80
2024/04/20 03:24:40;;;;;;;0.20;0.00;;;;;;;;;;5475424;26;20002;-80
2024/04/20 03:27:19;;;;;;;0.20;0.10;;;;;;;;;;5497807;26;20013;-80
2024/04/20 03:29:45;;;;;;;0.20;0.10;;;;;;;;;;5497838;26;19993;-80
2024/04/20 03:32:11;;;;;;;0.20;0.00;;;;;;;;;;5469848;26;19999;-80
2024/04/20 03:34:37;;;;;;;0.20;0.08;;;;;;;;;;5497767;26;20001;-80
2024/04/20 03:37:08;;;;;;;0.20;0.05;;;;;;;;;;5493080;26;20013;-80
2024/04/20 03:39:39;;;;;;;0.20;0.10;;;;;;;;;;5465272;26;20062;-81
2024/04/20 03:42:06;;;;;;;0.20;0.10;;;;;;;;;;5466949;26;20009;-81
2024/04/20 03:44:32;;;;;;;0.20;0.10;;;;;;;;;;5493966;26;19994;-81
2024/04/20 03:46:59;;;;;;;0.20;0.00;;;;;;;;;;5478515;26;19994;-81
2024/04/20 03:49:25;;;;;;;0.20;0.00;;;;;;;;;;5470898;26;20009;-80
2024/04/20 03:51:52;;;;;;;0.20;0.05;;;;;;;;;;5506171;26;20061;-81
2024/04/20 03:54:18;;;;;;;0.20;0.10;;;;;;;;;;5470564;26;19993;-81
2024/04/20 03:56:44;;;;;;;0.20;0.10;;;;;;;;;;5498568;26;19997;-79
2024/04/20 03:59:30;;;;;;;0.20;0.10;;;;;;;;;;5475786;26;20021;-80
2024/04/20 04:02:16;;;;;;;0.20;0.10;;;;;;;;;;5453151;26;20014;-78
2024/04/20 04:05:03;;;;;;;0.20;0.10;;;;;;;;;;5470217;26;20001;-80
2024/04/20 04:07:49;;;;;;;0.20;0.10;;;;;;;;;;5472922;26;20018;-80
2024/04/20 04:10:35;;;;;;;0.20;0.08;;;;;;;;;;5458856;26;20079;-81
2024/04/20 04:13:21;;;;;;;0.20;0.00;;;;;;;;;;5472840;26;20374;-81
2024/04/20 04:16:09;;;;;;;0.20;0.10;;;;;;;;;;5477963;26;20017;-81
2024/04/20 04:18:55;;;;;;;0.20;0.00;;;;;;;;;;5478233;26;20006;-81
2024/04/20 04:21:42;;;;;;;0.20;0.10;;;;;;;;;;5456473;26;19998;-81
2024/04/20 04:24:28;;;;;;;0.20;0.00;;;;;;;;;;5468168;26;20024;-82
2024/04/20 04:27:16;;;;;;;0.20;0.10;;;;;;;;;;5468972;26;20024;-81
2024/04/20 04:30:02;;;;;;;0.20;0.00;;;;;;;;;;5456294;26;20034;-81
2024/04/20 04:32:48;;;;;;;0.20;0.00;;;;;;;;;;5476438;26;20002;-81
2024/04/20 04:35:34;;;;;;;0.20;0.10;;;;;;;;;;5498860;26;20017;-82
2024/04/20 04:38:20;;;;;;;0.20;0.00;;;;;;;;;;5468751;26;20029;-82
2024/04/20 04:41:06;;;;;;;0.20;0.10;;;;;;;;;;5450495;26;20778;-82
2024/04/20 04:43:53;;;;;;;0.20;0.00;;;;;;;;;;5448929;26;20083;-80
2024/04/20 04:46:39;;;;;;;0.20;0.10;;;;;;;;;;5477227;26;20005;-81
2024/04/20 04:49:26;;;;;;;0.20;0.10;;;;;;;;;;5479782;26;20010;-80
2024/04/20 04:52:12;;;;;;;0.20;0.10;;;;;;;;;;5475211;26;20409;-81
2024/04/20 04:54:58;;;;;;;0.20;0.00;;;;;;;;;;5478470;26;20025;-83
2024/04/20 04:57:44;;;;;;;0.20;0.10;;;;;;;;;;5446682;26;20970;-84
2024/04/20 05:00:30;;;;;;;0.20;0.00;;;;;;;;;;5467347;26;20018;-81
2024/04/20 05:03:11;;;;;;;0.20;0.10;;;;;;;;;;5385726;26;20004;-80
2024/04/20 05:05:58;;;;;;;0.20;0.10;;;;;;;;;;5369976;26;20083;-77
2024/04/20 05:08:44;;;;;;;0.20;0.10;;;;;;;;;;5365874;26;20020;-77
2024/04/20 05:11:30;;;;;;;0.20;0.10;;;;;;;;;;5375057;26;20000;-78
2024/04/20 05:14:16;;;;;;;0.20;0.10;;;;;;;;;;5365020;26;20493;-77
2024/04/20 05:17:02;;;;;;;0.20;0.00;;;;;;;;;;5338706;26;20003;-77
2024/04/20 05:19:48;;;;;;;0.20;0.10;;;;;;;;;;5372640;26;20406;-78
2024/04/20 05:22:34;;;;;;;0.20;0.10;;;;;;;;;;5345921;26;20000;-78
2024/04/20 05:25:20;;;;;;;0.20;0.10;;;;;;;;;;5342847;26;20022;-78
2024/04/20 05:28:07;;;;;;;0.20;0.10;;;;;;;;;;5363059;26;20016;-78
2024/04/20 05:30:53;;;;;;;0.73;0.73;;;;;;;;;;5340785;26;20076;-77
2024/04/20 05:33:39;;;;;;;0.20;0.10;;;;;;;;;;5342494;26;20011;-80
2024/04/20 05:36:25;;;;;;;0.20;0.10;;;;;;;;;;5370083;26;20004;-79
2024/04/20 05:39:11;;;;;;;0.20;0.10;;;;;;;;;;5341643;26;20042;-79
2024/04/20 05:41:57;;;;;;;0.20;0.10;;;;;;;;;;5345152;26;20031;-78
2024/04/20 05:44:44;;;;;;;0.20;0.10;;;;;;;;;;5344871;26;20015;-79
2024/04/20 05:47:30;;;;;;;0.20;0.10;;;;;;;;;;5369309;26;20053;-79
2024/04/20 05:50:17;;;;;;;0.20;0.03;;;;;;;;;;5346192;26;20019;-79
2024/04/20 05:53:05;;;;;;;0.20;0.00;;;;;;;;;;5350027;26;20031;-77
2024/04/20 05:55:51;;;;;;;0.20;0.10;;;;;;;;;;5371464;26;20007;-78
2024/04/20 05:58:37;;;;;;;0.20;0.10;;;;;;;;;;5377941;26;20011;-79
2024/04/20 06:01:23;;;;;;;0.20;0.10;;;;;;;;;;5337373;26;20015;-80
2024/04/20 06:04:11;;;;;;;0.20;0.10;;;;;;;;;;5359448;26;20019;-79
2024/04/20 06:06:58;;;;;;;0.20;0.10;;;;;;;;;;5367460;26;20003;-80
2024/04/20 06:09:44;;;;;;;0.20;0.10;;;;;;;;;;5342163;26;20004;-79
2024/04/20 06:12:30;;;;;;;0.20;0.10;;;;;;;;;;5359362;26;20028;-79
2024/04/20 06:15:16;;;;;;;0.20;0.10;;;;;;;;;;5367705;26;20012;-80
2024/04/20 06:18:02;;;;;;;0.20;0.10;;;;;;;;;;5342476;26;20004;-78
2024/04/20 06:20:52;;;;;;;0.20;0.10;;;;;;;;;;5376439;26;20008;-79
2024/04/20 06:23:38;;;;;;;0.20;0.00;;;;;;;;;;5362523;26;20542;-80
2024/04/20 06:26:24;;;;;;;0.20;0.10;;;;;;;;;;5374211;26;20019;-80
2024/04/20 06:29:10;;;;;;;0.20;0.10;;;;;;;;;;5365107;26;20407;-80
2024/04/20 06:31:56;;;;;;;0.20;0.10;;;;;;;;;;5363277;26;20077;-83
2024/04/20 06:34:43;;;;;;;0.20;0.10;;;;;;;;;;5342613;26;20043;-82
2024/04/20 06:37:29;;;;;;;0.20;0.00;;;;;;;;;;5362167;26;20008;-83
2024/04/20 06:40:15;;;;;;;0.20;0.10;;;;;;;;;;5372670;26;20618;-82
2024/04/20 06:43:01;;;;;;;0.20;0.10;;;;;;;;;;5367209;26;20096;-80
2024/04/20 06:45:48;;;;;;;0.20;0.10;;;;;;;;;;5371448;26;20004;-80
2024/04/20 06:48:35;;;;;;;0.20;0.10;;;;;;;;;;5368379;26;20000;-82
2024/04/20 06:51:22;;;;;;;0.20;0.10;;;;;;;;;;5371097;26;20022;-80
2024/04/20 06:54:08;;;;;;;0.20;0.10;;;;;;;;;;5386906;26;20008;-79
2024/04/20 06:56:54;;;;;;;0.20;0.10;;;;;;;;;;5365772;26;20022;-82
2024/04/20 06:59:40;;;;;;;0.20;0.10;;;;;;;;;;5361080;26;20484;-81
2024/04/20 07:02:26;;;;;;;0.20;0.10;;;;;;;;;;5344051;26;20004;-81
2024/04/20 07:05:13;;;;;;;0.20;0.10;;;;;;;;;;5364197;26;20015;-79
2024/04/20 07:07:59;;;;;;;0.20;0.10;;;;;;;;;;5358758;26;20343;-80
2024/04/20 07:10:59;;;;;;;0.20;0.10;;;;;;;;;;5373853;26;20036;-79
2024/04/20 07:13:46;;;;;;;0.20;0.10;;;;;;;;;;5353496;26;20012;-80
2024/04/20 07:16:32;;;;;;;0.20;0.00;;;;;;;;;;5376965;26;20019;-80
2024/04/20 07:19:19;;;;;;;0.20;0.10;;;;;;;;;;5353301;26;20022;-79
2024/04/20 07:22:05;;;;;;;0.20;0.10;;;;;;;;;;5378593;26;20014;-79
2024/04/20 07:24:52;;;;;;;0.20;0.10;;;;;;;;;;5366877;26;20001;-81
2024/04/20 07:27:38;;;;;;;0.20;0.10;;;;;;;;;;5363608;26;21117;-81
2024/04/20 07:30:24;;;;;;;0.20;0.10;;;;;;;;;;5349474;26;20015;-79
2024/04/20 07:33:10;;;;;;;0.20;0.00;;;;;;;;;;5367258;26;20023;-80
2024/04/20 07:35:56;;;;;;;0.20;0.10;;;;;;;;;;5366867;26;20016;-79
2024/04/20 07:38:42;;;;;;;0.20;0.10;;;;;;;;;;5368476;26;20032;-77
2024/04/20 07:41:28;;;;;;;0.20;0.00;;;;;;;;;;5369014;26;20019;-79
2024/04/20 07:44:14;;;;;;;0.20;0.10;;;;;;;;;;5370439;26;20088;-79
2024/04/20 07:47:03;;;;;;;0.20;0.10;;;;;;;;;;5350688;26;20068;-80
2024/04/20 07:49:49;;;;;;;0.20;0.10;;;;;;;;;;5373065;26;20022;-83
2024/04/20 07:52:35;;;;;;;0.20;0.10;;;;;;;;;;5358100;26;20022;-78
2024/04/20 07:55:21;;;;;;;0.20;0.10;;;;;;;;;;5370076;26;20347;-79
2024/04/20 07:58:07;;;;;;;0.20;0.05;;;;;;;;;;5370453;26;20464;-79
2024/04/20 08:00:53;;;;;;;0.20;0.10;;;;;;;;;;5370101;26;20052;-78
2024/04/20 08:03:39;;;;;;;0.20;0.10;;;;;;;;;;5364885;26;20011;-80
2024/04/20 08:06:25;;;;;;;0.20;0.10;;;;;;;;;;5365647;26;20008;-77
2024/04/20 08:09:11;;;;;;;0.20;0.05;;;;;;;;;;5336522;26;20079;-78
2024/04/20 08:11:57;;;;;;;0.20;0.10;;;;;;;;;;5362693;26;20749;-81
2024/04/20 08:14:44;;;;;;;0.20;0.00;;;;;;;;;;5362563;26;20026;-79
2024/04/20 08:17:30;;;;;;;0.20;0.00;;;;;;;;;;5347142;26;20004;-77
2024/04/20 08:20:17;;;;;;;0.20;0.10;;;;;;;;;;5371086;26;20018;-78
2024/04/20 08:23:03;;;;;;;0.20;0.10;;;;;;;;;;5360217;26;20011;-78
2024/04/20 08:25:50;;;;;;;0.20;0.10;;;;;;;;;;5365286;26;20031;-77
2024/04/20 08:28:36;;;;;;;0.20;0.10;;;;;;;;;;5371507;26;20483;-79
2024/04/20 08:31:22;;;;;;;0.20;0.10;;;;;;;;;;5373775;26;19999;-78
2024/04/20 08:34:08;;;;;;;0.20;0.10;;;;;;;;;;5370010;26;20061;-78
2024/04/20 08:36:54;;;;;;;0.20;0.10;;;;;;;;;;5363691;26;20024;-80
2024/04/20 08:39:40;;;;;;;0.20;0.00;;;;;;;;;;5360616;26;20003;-78
2024/04/20 08:42:30;;;;;;;0.20;0.00;;;;;;;;;;5361102;26;20016;-77
2024/04/20 08:45:19;;;;;;;0.20;0.10;;;;;;;;;;5367063;26;20025;-76
2024/04/20 08:48:08;;;;;;;0.20;0.00;;;;;;;;;;5341423;26;20309;-81
2024/04/20 08:50:55;;;;;;;0.20;0.05;;;;;;;;;;5373134;26;20015;-77
2024/04/20 08:53:42;;;;;;;0.20;0.10;;;;;;;;;;5368899;26;20368;-77
2024/04/20 08:56:28;;;;;;;0.20;0.10;;;;;;;;;;5368271;26;20004;-79
2024/04/20 08:58:54;;;;;;;0.20;0.10;;;;;;;;;;5397393;26;20012;-81
2024/04/20 09:01:22;;;;;;;0.20;0.10;;;;;;;;;;5389054;26;20027;-81
2024/04/20 09:03:49;;;;;;;0.20;0.10;;;;;;;;;;5403243;26;20003;-82
2024/04/20 09:06:35;;;;;;;0.20;0.00;;;;;;;;;;5363876;26;20348;-84
2024/04/20 09:09:22;;;;;;;0.20;0.00;;;;;;;;;;5343614;26;20505;-81
2024/04/20 09:11:49;;;;;;;0.20;0.08;;;;;;;;;;5394938;26;20451;-83
2024/04/20 09:14:35;;;;;;;0.20;0.10;;;;;;;;;;5359176;26;20004;-80
2024/04/20 09:17:01;;;;;;;0.20;0.10;;;;;;;;;;5386676;26;20007;-83
2024/04/20 09:19:49;;;;;;;0.20;0.00;;;;;;;;;;5344804;26;20051;-80
2024/04/20 09:22:35;;;;;;;0.20;0.10;;;;;;;;;;5358484;26;20345;-81
2024/04/20 09:25:22;;;;;;;0.20;0.10;;;;;;;;;;5367778;26;20004;-80
2024/04/20 09:28:09;;;;;;;0.20;0.10;;;;;;;;;;5344072;26;20602;-80
2024/04/20 09:30:55;;;;;;;0.20;0.00;;;;;;;;;;5369391;26;20046;-80
2024/04/20 09:33:47;;;;;;;0.20;0.10;;;;;;;;;;5373555;26;20024;-81
2024/04/20 09:36:33;;;;;;;0.20;0.10;;;;;;;;;;5367244;26;20023;-79
2024/04/20 09:39:20;;;;;;;0.20;0.00;;;;;;;;;;5374720;26;20018;-80
2024/04/20 09:42:07;;;;;;;0.20;0.10;;;;;;;;;;5349116;26;20468;-79
2024/04/20 09:44:54;;;;;;;0.20;0.10;;;;;;;;;;5366956;26;20004;-82
2024/04/20 09:47:41;;;;;;;0.20;0.10;;;;;;;;;;5370877;26;20022;-81
2024/04/20 09:50:27;;;;;;;0.20;0.10;;;;;;;;;;5369221;26;20024;-82
2024/04/20 09:53:20;;;;;;;0.20;0.10;;;;;;;;;;5374560;26;20007;-83
2024/04/20 09:56:07;;;;;;;0.20;0.10;;;;;;;;;;5345125;26;20000;-84
2024/04/20 09:58:54;;;;;;;0.20;0.10;;;;;;;;;;5340388;26;20004;-83
2024/04/20 10:01:40;;;;;;;0.20;0.10;;;;;;;;;;5353356;26;20017;-81
2024/04/20 10:04:27;;;;;;;0.20;0.00;;;;;;;;;;5381453;26;20053;-79
2024/04/20 10:07:15;;;;;;;0.20;0.10;;;;;;;;;;5372197;26;20321;-83
2024/04/20 10:10:01;;;;;;;0.20;0.10;;;;;;;;;;5348417;26;20010;-82
2024/04/20 10:12:48;;;;;;;0.20;0.10;;;;;;;;;;5367259;26;20000;-82
2024/04/20 10:15:34;;;;;;;0.20;0.10;;;;;;;;;;5368382;26;20020;-81
2024/04/20 10:18:21;;;;;;;0.20;0.10;;;;;;;;;;5381095;26;20472;-80
2024/04/20 10:21:12;;;;;;;0.20;0.10;;;;;;;;;;5367152;26;20007;-78
2024/04/20 10:23:58;;;;;;;0.20;0.00;;;;;;;;;;5375579;26;20491;-81
2024/04/20 10:26:47;;;;;;;0.20;0.10;;;;;;;;;;5378887;26;20095;-80
2024/04/20 10:29:35;;;;;;;0.20;0.10;;;;;;;;;;5377004;26;20093;-80
2024/04/20 10:32:24;;;;;;;0.20;0.10;;;;;;;;;;5381804;26;20018;-77
2024/04/20 10:35:11;;;;;;;0.20;0.10;;;;;;;;;;5370020;26;20004;-78
2024/04/20 10:38:04;;;;;;;0.20;0.00;;;;;;;;;;5369957;26;20489;-79
2024/04/20 10:40:50;;;;;;;0.20;0.10;;;;;;;;;;5376438;26;20022;-83
2024/04/20 10:43:36;;;;;;;0.20;0.10;;;;;;;;;;5374235;26;20007;-82
2024/04/20 10:46:22;;;;;;;0.20;0.10;;;;;;;;;;5349089;26;20345;-82
2024/04/20 10:49:11;;;;;;;0.20;0.08;;;;;;;;;;5376582;26;20016;-82
2024/04/20 10:51:58;;;;;;;0.20;0.10;;;;;;;;;;5378496;26;20007;-82
2024/04/20 10:54:44;;;;;;;0.20;0.00;;;;;;;;;;5379776;26;20004;-83
2024/04/20 10:57:31;;;;;;;0.20;0.10;;;;;;;;;;5377126;26;20347;-80
2024/04/20 11:00:21;;;;;;;0.20;0.00;;;;;;;;;;5375262;26;20015;-81
2024/04/20 11:02:54;;;;;;;0.20;0.10;;;;;;;;;;5445457;21;20359;-80
2024/04/20 11:05:20;;;;;;;;;;;;;;;;;;5440946;26;20357;-80
2024/04/20 11:07:46;;;;;;;0.20;0.10;;;;;;;;;;5446931;26;19924;-82
2024/04/20 11:10:32;;;;;;;0.20;0.10;;;;;;;;;;5434732;26;20109;-83
2024/04/20 11:13:18;;;;;;;0.20;0.00;;;;;;;;;;5406860;26;20003;-80
2024/04/20 11:16:06;;;;;;;0.20;0.10;;;;;;;;;;5407019;26;20008;-79
2024/04/20 11:18:52;;;;;;;0.20;0.10;;;;;;;;;;5371631;26;20019;-80
2024/04/20 11:21:39;;;;;;;0.20;0.00;;;;;;;;;;5367935;26;20016;-80
2024/04/20 11:24:26;;;;;;;0.20;0.10;;;;;;;;;;5396617;26;20413;-82
2024/04/20 11:27:15;;;;;;;0.20;0.10;;;;;;;;;;5403909;26;20049;-79
2024/04/20 11:30:02;;;;;;;0.20;0.00;;;;;;;;;;5404103;26;20020;-80
2024/04/20 11:33:00;;;;;;;0.75;0.68;;;;;;;;;;5397531;26;20569;-83
2024/04/20 11:35:50;;;;;;;0.20;0.00;;;;;;;;;;5380718;26;20003;-80
2024/04/20 11:38:36;;;;;;;0.20;0.10;;;;;;;;;;5400932;26;20088;-82
2024/04/20 11:41:24;;;;;;;0.20;0.00;;;;;;;;;;5378117;26;20007;-78
2024/04/20 11:44:15;;;;;;;0.20;0.10;;;;;;;;;;5377410;26;20000;-81
2024/04/20 11:47:01;;;;;;;0.20;0.10;;;;;;;;;;5382345;26;19999;-82
2024/04/20 11:49:51;;;;;;;0.20;0.10;;;;;;;;;;5398149;26;20000;-79
2024/04/20 11:55:24;;;;;;;0.20;0.03;;;;;;;;;;5405685;26;19995;-82
2024/04/20 11:57:54;;;;;;;0.20;0.15;;;;;;;;;;5409353;26;20004;-81
2024/04/20 12:00:21;;;;;;;0.20;0.10;;;;;;;;;;5399993;26;19996;-82
2024/04/20 12:02:48;;;;;;;0.20;0.10;;;;;;;;;;5397671;26;20000;-82
2024/04/20 12:05:15;;;;;;;0.20;0.00;;;;;;;;;;5405317;26;20010;-81
2024/04/20 12:07:41;;;;;;;0.20;0.10;;;;;;;;;;5410926;26;20461;-81
2024/04/20 12:10:09;;;;;;;0.20;0.10;;;;;;;;;;5413524;26;20007;-79
2024/04/20 12:12:36;;;;;;;0.20;0.00;;;;;;;;;;5411970;26;20000;-80
2024/04/20 12:15:02;;;;;;;0.20;0.00;;;;;;;;;;5409105;26;20018;-81
2024/04/20 12:17:28;;;;;;;0.20;0.10;;;;;;;;;;5416891;26;20371;-81
2024/04/20 12:19:55;;;;;;;0.20;0.10;;;;;;;;;;5408890;26;20010;-81
2024/04/20 12:22:21;;;;;;;0.20;0.10;;;;;;;;;;5411306;26;20019;-79
2024/04/20 12:24:48;;;;;;;1.27;1.17;;;;;;;;;;5406880;26;20566;-81
2024/04/20 12:27:14;;;;;;;0.20;0.10;;;;;;;;;;5400457;26;20045;-80
2024/04/20 12:29:40;;;;;;;0.20;0.10;;;;;;;;;;5400798;26;20486;-79
2024/04/20 12:32:08;;;;;;;0.20;0.10;;;;;;;;;;5402488;26;20322;-78
2024/04/20 12:34:34;;;;;;;0.20;0.05;;;;;;;;;;5400352;26;20472;-83
2024/04/20 12:37:00;;;;;;;0.20;0.10;;;;;;;;;;5408710;26;20004;-79
2024/04/20 12:39:26;;;;;;;0.20;0.10;;;;;;;;;;5408060;26;19995;-79
2024/04/20 12:41:52;;;;;;;0.20;0.10;;;;;;;;;;5397845;26;19999;-80
2024/04/20 12:44:18;;;;;;;0.20;0.00;;;;;;;;;;5405660;26;19999;-81
2024/04/20 12:46:44;;;;;;;0.20;0.03;;;;;;;;;;5407030;26;20008;-81
2024/04/20 12:49:10;;;;;;;0.20;0.00;;;;;;;;;;5401500;26;20000;-81
2024/04/20 12:51:37;;;;;;;0.20;0.10;;;;;;;;;;5398282;26;20008;-81
2024/04/20 12:54:04;;;;;;;0.20;0.00;;;;;;;;;;5403282;26;20373;-82
2024/04/20 12:56:30;;;;;;;0.20;0.10;;;;;;;;;;5405823;26;19999;-81
2024/04/20 12:58:57;;;;;;;0.20;0.00;;;;;;;;;;5407736;26;20004;-82
2024/04/20 13:01:23;;;;;;;0.20;0.00;;;;;;;;;;5402139;26;20000;-81
2024/04/20 13:03:49;;;;;;;0.20;0.00;;;;;;;;;;5396364;26;20010;-81
2024/04/20 13:06:15;;;;;;;0.20;0.10;;;;;;;;;;5404420;26;19999;-83
2024/04/20 13:08:42;;;;;;;0.20;0.00;;;;;;;;;;5408531;26;20409;-82
2024/04/20 13:11:09;;;;;;;0.20;0.00;;;;;;;;;;5401093;26;20324;-81
2024/04/20 13:13:35;;;;;;;0.20;0.00;;;;;;;;;;5404402;26;20000;-83
2024/04/20 13:16:02;;;;;;;0.20;0.00;;;;;;;;;;5410385;26;19995;-83
2024/04/20 13:18:28;;;;;;;0.20;0.10;;;;;;;;;;5410000;26;19999;-82
2024/04/20 13:20:55;;;;;;;0.20;0.00;;;;;;;;;;5407786;26;20011;-85
2024/04/20 13:23:21;;;;;;;0.20;0.10;;;;;;;;;;5408439;26;19995;-82
2024/04/20 13:25:48;;;;;;;0.20;0.10;;;;;;;;;;5411164;26;20010;-81
2024/04/20 13:28:16;;;;;;;0.20;0.10;;;;;;;;;;5413493;26;20036;-83
2024/04/20 13:30:45;;;;;;;0.20;0.00;;;;;;;;;;5405735;26;19996;-83
2024/04/20 13:33:12;;;;;;;0.20;0.10;;;;;;;;;;5389502;26;20007;-82
2024/04/20 13:35:39;;;;;;;0.20;0.08;;;;;;;;;;5395489;26;19999;-83
2024/04/20 13:38:06;;;;;;;0.20;0.00;;;;;;;;;;5405603;26;20160;-84
2024/04/20 13:40:32;;;;;;;0.20;0.00;;;;;;;;;;5399547;26;20390;-83
2024/04/20 13:42:58;;;;;;;0.20;0.10;;;;;;;;;;5400279;26;20004;-80
2024/04/20 13:45:25;;;;;;;0.20;0.20;;;;;;;;;;5408131;26;20015;-82
2024/04/20 13:47:51;;;;;;;0.20;0.10;;;;;;;;;;5391895;26;20077;-82
2024/04/20 13:50:17;;;;;;;0.20;0.05;;;;;;;;;;5408788;26;19999;-81
2024/04/20 13:52:44;;;;;;;0.20;0.00;;;;;;;;;;5395621;26;20011;-81
2024/04/20 13:55:11;;;;;;;0.20;0.00;;;;;;;;;;5400020;26;20036;-81
2024/04/20 13:57:37;;;;;;;0.20;0.10;;;;;;;;;;5404489;26;20011;-81
2024/04/20 14:00:03;;;;;;;0.20;0.10;;;;;;;;;;5402886;26;20008;-83
2024/04/20 14:02:29;;;;;;;0.20;0.00;;;;;;;;;;5408425;26;20010;-81
2024/04/20 14:04:56;;;;;;;0.20;0.00;;;;;;;;;;5400419;26;20009;-82
2024/04/20 14:07:22;;;;;;;0.20;0.00;;;;;;;;;;5402554;26;19997;-83
2024/04/20 14:09:52;;;;;;;0.20;0.00;;;;;;;;;;5403465;26;19999;-86
2024/04/20 14:12:20;;;;;;;0.20;0.00;;;;;;;;;;5399283;26;20000;-83
2024/04/20 14:14:46;;;;;;;0.20;0.10;;;;;;;;;;5406656;26;20378;-80
2024/04/20 14:17:12;;;;;;;0.20;0.10;;;;;;;;;;5393153;26;20004;-81
2024/04/20 14:19:38;;;;;;;0.20;0.00;;;;;;;;;;5397522;26;20001;-84
2024/04/20 14:22:04;;;;;;;0.20;0.00;;;;;;;;;;5398947;26;20046;-82
2024/04/20 14:24:32;;;;;;;0.20;0.10;;;;;;;;;;5398217;26;19996;-82
2024/04/20 14:27:01;;;;;;;0.20;0.10;;;;;;;;;;5405119;26;20004;-84
2024/04/20 14:29:27;;;;;;;0.20;0.10;;;;;;;;;;5408855;26;20006;-88
2024/04/20 14:31:53;;;;;;;0.40;0.40;;;;;;;;;;5398658;26;20470;-83
2024/04/20 14:34:19;;;;;;;0.20;0.10;;;;;;;;;;5390633;26;20016;-83
2024/04/20 14:36:45;;;;;;;0.20;0.10;;;;;;;;;;5398094;26;20049;-82
2024/04/20 14:39:12;;;;;;;0.20;0.05;;;;;;;;;;5395116;26;20018;-82
2024/04/20 14:41:39;;;;;;;0.20;0.10;;;;;;;;;;5398762;26;20014;-83
2024/04/20 14:44:05;;;;;;;0.20;0.08;;;;;;;;;;5397094;26;19996;-82
2024/04/20 14:46:31;;;;;;;0.20;0.00;;;;;;;;;;5401791;26;20022;-84
2024/04/20 14:48:57;;;;;;;0.20;0.03;;;;;;;;;;5402864;26;19999;-87
2024/04/20 14:51:23;;;;;;;0.20;0.00;;;;;;;;;;5392730;26;19996;-83
2024/04/20 14:53:49;;;;;;;0.20;0.10;;;;;;;;;;5398964;26;20016;-86
2024/04/20 14:56:17;;;;;;;0.20;0.05;;;;;;;;;;5393835;26;20067;-84
2024/04/20 14:58:43;;;;;;;0.20;0.00;;;;;;;;;;5401763;26;20022;-86
2024/04/20 15:01:09;;;;;;;0.20;0.03;;;;;;;;;;5398376;26;19995;-82
2024/04/20 15:03:36;;;;;;;0.20;0.00;;;;;;;;;;5415451;26;20007;-87
2024/04/20 15:06:02;;;;;;;0.20;0.10;;;;;;;;;;5406102;26;20476;-84
2024/04/20 15:08:30;;;;;;;0.20;0.00;;;;;;;;;;5393069;26;20074;-84
2024/04/20 15:11:16;;;;;;;0.20;0.10;;;;;;;;;;5397596;26;20011;-84
2024/04/20 15:13:45;;;;;;;0.20;0.10;;;;;;;;;;5405582;26;20000;-84
2024/04/20 15:16:13;;;;;;;0.20;0.00;;;;;;;;;;5404751;26;20049;-82
2024/04/20 15:18:39;;;;;;;0.20;0.10;;;;;;;;;;5405581;26;20008;-83
2024/04/20 15:21:05;;;;;;;0.20;0.10;;;;;;;;;;5408277;26;20007;-83
2024/04/20 15:23:32;;;;;;;0.20;0.10;;;;;;;;;;5399714;26;20004;-86
2024/04/20 15:25:58;;;;;;;0.20;0.10;;;;;;;;;;5407599;26;20010;-82
2024/04/20 15:28:24;;;;;;;0.20;0.10;;;;;;;;;;5394487;26;20019;-84
2024/04/20 15:30:56;;;;;;;0.20;0.10;;;;;;;;;;5407131;26;20046;-87
2024/04/20 15:33:23;;;;;;;0.20;0.00;;;;;;;;;;5402096;26;19995;-83
2024/04/20 15:36:02;;;;;;;0.20;0.10;;;;;;;;;;5404397;26;20008;-85
2024/04/20 15:38:31;;;;;;;0.20;0.17;;;;;;;;;;5402113;26;20364;-82